createdAt,value
2018-08-16T00:00:31.790Z,24.30
2018-08-16T00:01:03.781Z,24.40
2018-08-16T00:01:35.566Z,24.30
2018-08-16T00:02:07.410Z,24.40
2018-08-16T00:02:39.431Z,24.40
2018-08-16T00:03:11.230Z,24.40
2018-08-16T00:03:43.032Z,24.40
2018-08-16T00:04:14.807Z,24.40
2018-08-16T00:04:46.602Z,24.40
2018-08-16T00:05:18.707Z,24.40
2018-08-16T00:05:50.585Z,24.40
2018-08-16T00:06:22.419Z,24.40
2018-08-16T00:06:54.247Z,24.40
2018-08-16T00:07:26.036Z,24.40
2018-08-16T00:07:58.004Z,24.40
2018-08-16T00:08:29.815Z,24.40
2018-08-16T00:09:01.628Z,24.40
2018-08-16T00:09:33.427Z,24.40
2018-08-16T00:10:05.372Z,24.40
2018-08-16T00:10:37.297Z,24.40
2018-08-16T00:11:09.088Z,24.40
2018-08-16T00:11:40.979Z,24.50
2018-08-16T00:12:12.776Z,24.50
2018-08-16T00:12:44.556Z,24.50
2018-08-16T00:13:16.398Z,24.50
2018-08-16T00:13:48.246Z,24.50
2018-08-16T00:14:20.037Z,24.50
2018-08-16T00:14:51.978Z,24.50
2018-08-16T00:15:23.839Z,24.50
2018-08-16T00:15:55.621Z,24.50
2018-08-16T00:16:27.517Z,24.50
2018-08-16T00:16:59.320Z,24.40
2018-08-16T00:17:31.134Z,24.40
2018-08-16T00:18:02.957Z,24.50
2018-08-16T00:18:34.796Z,24.40
2018-08-16T00:19:06.913Z,24.40
2018-08-16T00:19:38.883Z,24.40
2018-08-16T00:20:10.697Z,24.40
2018-08-16T00:20:42.545Z,24.40
2018-08-16T00:21:14.376Z,24.50
2018-08-16T00:21:46.419Z,24.50
2018-08-16T00:22:18.255Z,24.40
2018-08-16T00:22:50.117Z,24.50
2018-08-16T00:23:21.999Z,24.50
2018-08-16T00:23:53.805Z,24.50
2018-08-16T00:24:25.727Z,24.40
2018-08-16T00:24:57.978Z,24.40
2018-08-16T00:25:30.186Z,24.40
2018-08-16T00:26:02.011Z,24.40
2018-08-16T00:26:33.807Z,24.40
2018-08-16T00:27:05.619Z,24.40
2018-08-16T00:27:37.438Z,24.40
2018-08-16T00:28:09.302Z,24.50
2018-08-16T00:28:41.211Z,24.50
2018-08-16T00:29:13.245Z,24.50
2018-08-16T00:29:45.067Z,24.50
2018-08-16T00:30:17.051Z,24.50
2018-08-16T00:30:48.876Z,24.50
2018-08-16T00:31:20.706Z,24.50
2018-08-16T00:31:52.537Z,24.50
2018-08-16T00:32:24.372Z,24.50
2018-08-16T00:32:56.210Z,24.50
2018-08-16T00:33:28.176Z,24.50
2018-08-16T00:34:00.100Z,24.50
2018-08-16T00:34:31.977Z,24.50
2018-08-16T00:35:03.916Z,24.50
2018-08-16T00:35:35.707Z,24.50
2018-08-16T00:36:07.498Z,24.50
2018-08-16T00:36:39.297Z,24.50
2018-08-16T00:37:11.089Z,24.50
2018-08-16T00:37:42.949Z,24.50
2018-08-16T00:38:15.054Z,24.50
2018-08-16T00:38:46.893Z,24.50
2018-08-16T00:39:18.716Z,24.40
2018-08-16T00:39:50.744Z,24.40
2018-08-16T00:40:22.655Z,24.40
2018-08-16T00:40:54.674Z,24.40
2018-08-16T00:41:26.591Z,24.40
2018-08-16T00:41:58.423Z,24.30
2018-08-16T00:42:30.264Z,24.30
2018-08-16T00:43:02.113Z,24.30
2018-08-16T00:43:33.949Z,24.30
2018-08-16T00:44:05.773Z,24.30
2018-08-16T00:44:37.633Z,24.30
2018-08-16T00:45:09.578Z,24.30
2018-08-16T00:45:41.345Z,24.30
2018-08-16T00:46:13.193Z,24.30
2018-08-16T00:46:44.948Z,24.30
2018-08-16T00:47:16.812Z,24.30
2018-08-16T00:47:48.870Z,24.30
2018-08-16T00:48:20.812Z,24.30
2018-08-16T00:48:52.652Z,24.20
2018-08-16T00:49:24.565Z,24.30
2018-08-16T00:49:56.342Z,24.30
2018-08-16T00:50:28.250Z,24.30
2018-08-16T00:51:00.270Z,24.30
2018-08-16T00:51:32.272Z,24.30
2018-08-16T00:52:04.080Z,24.30
2018-08-16T00:52:35.949Z,24.30
2018-08-16T00:53:07.730Z,24.30
2018-08-16T00:53:39.529Z,24.30
2018-08-16T00:54:11.430Z,24.30
2018-08-16T00:54:43.277Z,24.30
2018-08-16T00:55:15.223Z,24.20
2018-08-16T00:55:47.120Z,24.20
2018-08-16T00:56:18.961Z,24.30
2018-08-16T00:56:50.945Z,24.30
2018-08-16T00:57:22.765Z,24.20
2018-08-16T00:57:54.549Z,24.20
2018-08-16T00:58:26.347Z,24.20
2018-08-16T00:58:58.347Z,24.20
2018-08-16T00:59:30.116Z,24.20
2018-08-16T01:00:01.988Z,24.20
2018-08-16T01:00:33.927Z,24.20
2018-08-16T01:01:05.957Z,24.20
2018-08-16T01:01:37.857Z,24.20
2018-08-16T01:02:09.629Z,24.20
2018-08-16T01:02:41.435Z,24.20
2018-08-16T01:03:13.232Z,24.20
2018-08-16T01:03:45.057Z,24.20
2018-08-16T01:04:16.864Z,24.20
2018-08-16T01:04:48.794Z,24.20
2018-08-16T01:05:20.620Z,24.20
2018-08-16T01:05:52.500Z,24.20
2018-08-16T01:06:24.396Z,24.20
2018-08-16T01:06:56.286Z,24.20
2018-08-16T01:07:28.069Z,24.20
2018-08-16T01:08:00.276Z,24.30
2018-08-16T01:08:32.196Z,24.30
2018-08-16T01:09:04.037Z,24.30
2018-08-16T01:09:35.995Z,24.30
2018-08-16T01:10:07.845Z,24.30
2018-08-16T01:10:39.873Z,24.30
2018-08-16T01:11:11.820Z,24.30
2018-08-16T01:11:43.683Z,24.30
2018-08-16T01:12:15.454Z,24.30
2018-08-16T01:12:47.235Z,24.30
2018-08-16T01:13:19.283Z,24.40
2018-08-16T01:13:51.284Z,24.30
2018-08-16T01:14:23.464Z,24.40
2018-08-16T01:14:55.302Z,24.40
2018-08-16T01:15:27.093Z,24.40
2018-08-16T01:15:58.903Z,24.40
2018-08-16T01:16:30.702Z,24.40
2018-08-16T01:17:02.514Z,24.40
2018-08-16T01:17:34.337Z,24.40
2018-08-16T01:18:06.152Z,24.30
2018-08-16T01:18:37.927Z,24.30
2018-08-16T01:19:09.746Z,24.30
2018-08-16T01:19:41.614Z,24.30
2018-08-16T01:20:13.665Z,24.30
2018-08-16T01:20:45.558Z,24.20
2018-08-16T01:21:17.457Z,24.30
2018-08-16T01:21:49.281Z,24.30
2018-08-16T01:22:21.092Z,24.20
2018-08-16T01:22:53.081Z,24.20
2018-08-16T01:23:24.890Z,24.20
2018-08-16T01:23:56.859Z,24.20
2018-08-16T01:24:28.750Z,24.20
2018-08-16T01:25:00.597Z,24.20
2018-08-16T01:25:32.721Z,24.20
2018-08-16T01:26:04.720Z,24.20
2018-08-16T01:26:36.483Z,24.30
2018-08-16T01:27:08.342Z,24.30
2018-08-16T01:27:40.230Z,24.30
2018-08-16T01:28:12.172Z,24.30
2018-08-16T01:28:44.289Z,24.30
2018-08-16T01:29:16.109Z,24.30
2018-08-16T01:29:48.139Z,24.30
2018-08-16T01:30:19.924Z,24.30
2018-08-16T01:30:51.768Z,24.30
2018-08-16T01:31:23.617Z,24.30
2018-08-16T01:31:55.509Z,24.30
2018-08-16T01:32:27.518Z,24.30
2018-08-16T01:32:59.378Z,24.30
2018-08-16T01:33:31.174Z,24.30
2018-08-16T01:34:03.077Z,24.30
2018-08-16T01:34:34.980Z,24.30
2018-08-16T01:35:06.778Z,24.30
2018-08-16T01:35:38.960Z,24.30
2018-08-16T01:36:10.802Z,24.30
2018-08-16T01:36:42.676Z,24.30
2018-08-16T01:37:14.796Z,24.30
2018-08-16T01:37:46.587Z,24.30
2018-08-16T01:38:18.478Z,24.30
2018-08-16T01:38:50.416Z,24.30
2018-08-16T01:39:22.268Z,24.30
2018-08-16T01:39:54.175Z,24.30
2018-08-16T01:40:26.006Z,24.30
2018-08-16T01:40:57.827Z,24.30
2018-08-16T01:41:29.656Z,24.40
2018-08-16T01:42:01.467Z,24.40
2018-08-16T01:42:33.267Z,24.40
2018-08-16T01:43:05.324Z,24.30
2018-08-16T01:43:37.123Z,24.40
2018-08-16T01:44:08.927Z,24.40
2018-08-16T01:44:40.764Z,24.40
2018-08-16T01:45:12.555Z,24.30
2018-08-16T01:45:44.425Z,24.30
2018-08-16T01:46:16.387Z,24.30
2018-08-16T01:46:48.191Z,24.30
2018-08-16T01:47:19.940Z,24.30
2018-08-16T01:47:51.865Z,24.30
2018-08-16T01:48:23.786Z,24.30
2018-08-16T01:48:55.678Z,24.30
2018-08-16T01:49:27.685Z,24.30
2018-08-16T01:49:59.644Z,24.30
2018-08-16T01:50:31.525Z,24.30
2018-08-16T01:51:03.364Z,24.30
2018-08-16T01:51:35.165Z,24.30
2018-08-16T01:52:07.109Z,24.30
2018-08-16T01:52:38.875Z,24.30
2018-08-16T01:53:10.935Z,24.30
2018-08-16T01:53:42.843Z,24.30
2018-08-16T01:54:14.684Z,24.30
2018-08-16T01:54:46.626Z,24.30
2018-08-16T01:55:18.524Z,24.40
2018-08-16T01:55:50.612Z,24.30
2018-08-16T01:56:22.417Z,24.30
2018-08-16T01:56:54.228Z,24.30
2018-08-16T01:57:26.016Z,24.30
2018-08-16T01:57:57.814Z,24.30
2018-08-16T01:58:29.664Z,24.30
2018-08-16T01:59:01.613Z,24.20
2018-08-16T01:59:33.441Z,24.30
2018-08-16T02:00:05.259Z,24.20
2018-08-16T02:00:37.215Z,24.20
2018-08-16T02:01:09.244Z,24.20
2018-08-16T02:01:41.065Z,24.20
2018-08-16T02:02:13.134Z,24.20
2018-08-16T02:02:45.065Z,24.20
2018-08-16T02:03:16.883Z,24.20
2018-08-16T02:03:48.666Z,24.20
2018-08-16T02:04:20.574Z,24.20
2018-08-16T02:04:52.389Z,24.20
2018-08-16T02:05:24.145Z,24.20
2018-08-16T02:05:56.585Z,24.20
2018-08-16T02:06:28.420Z,24.20
2018-08-16T02:07:00.255Z,24.20
2018-08-16T02:07:32.233Z,24.20
2018-08-16T02:08:04.057Z,24.20
2018-08-16T02:08:36.015Z,24.20
2018-08-16T02:09:07.924Z,24.20
2018-08-16T02:09:39.739Z,24.20
2018-08-16T02:10:11.763Z,24.20
2018-08-16T02:10:43.633Z,24.20
2018-08-16T02:11:15.460Z,24.20
2018-08-16T02:11:47.740Z,24.20
2018-08-16T02:12:19.775Z,24.20
2018-08-16T02:12:51.646Z,24.20
2018-08-16T02:13:23.456Z,24.20
2018-08-16T02:13:55.355Z,24.20
2018-08-16T02:14:27.264Z,24.10
2018-08-16T02:14:59.016Z,24.10
2018-08-16T02:15:30.814Z,24.10
2018-08-16T02:16:02.704Z,24.10
2018-08-16T02:16:34.537Z,24.20
2018-08-16T02:17:06.326Z,24.10
2018-08-16T02:17:38.304Z,24.10
2018-08-16T02:18:10.187Z,24.10
2018-08-16T02:18:42.134Z,24.10
2018-08-16T02:19:14.077Z,24.10
2018-08-16T02:19:46.005Z,24.10
2018-08-16T02:20:17.904Z,24.10
2018-08-16T02:20:49.729Z,24.10
2018-08-16T02:21:21.504Z,24.10
2018-08-16T02:21:53.645Z,24.20
2018-08-16T02:22:25.461Z,24.20
2018-08-16T02:22:57.564Z,24.20
2018-08-16T02:23:29.373Z,24.20
2018-08-16T02:24:01.192Z,24.20
2018-08-16T02:24:33.013Z,24.20
2018-08-16T02:25:04.849Z,24.20
2018-08-16T02:25:36.670Z,24.20
2018-08-16T02:26:08.562Z,24.10
2018-08-16T02:26:40.517Z,24.20
2018-08-16T02:27:12.505Z,24.20
2018-08-16T02:27:44.361Z,24.10
2018-08-16T02:28:16.196Z,24.10
2018-08-16T02:28:48.063Z,24.10
2018-08-16T02:29:19.883Z,24.00
2018-08-16T02:29:51.734Z,24.10
2018-08-16T02:30:23.529Z,24.00
2018-08-16T02:30:55.302Z,24.00
2018-08-16T02:31:27.292Z,24.00
2018-08-16T02:31:59.108Z,24.00
2018-08-16T02:32:30.914Z,23.90
2018-08-16T02:33:03.533Z,23.80
2018-08-16T02:33:35.425Z,23.90
2018-08-16T02:34:07.333Z,23.90
2018-08-16T02:34:39.198Z,23.90
2018-08-16T02:35:11.024Z,23.90
2018-08-16T02:35:42.814Z,23.90
2018-08-16T02:36:14.811Z,23.90
2018-08-16T02:36:46.594Z,23.90
2018-08-16T02:37:18.423Z,24.00
2018-08-16T02:37:50.259Z,24.00
2018-08-16T02:38:22.075Z,24.00
2018-08-16T02:38:54.003Z,24.00
2018-08-16T02:39:25.911Z,24.00
2018-08-16T02:39:57.698Z,24.00
2018-08-16T02:40:29.507Z,24.10
2018-08-16T02:41:01.362Z,24.10
2018-08-16T02:41:33.323Z,24.10
2018-08-16T02:42:05.461Z,24.10
2018-08-16T02:42:37.311Z,24.10
2018-08-16T02:43:09.133Z,24.10
2018-08-16T02:43:40.922Z,24.10
2018-08-16T02:44:12.752Z,24.10
2018-08-16T02:44:44.579Z,24.10
2018-08-16T02:45:16.324Z,24.10
2018-08-16T02:45:48.271Z,24.10
2018-08-16T02:46:20.186Z,24.10
2018-08-16T02:46:51.988Z,24.10
2018-08-16T02:47:23.769Z,24.20
2018-08-16T02:47:55.563Z,24.20
2018-08-16T02:48:27.491Z,24.20
2018-08-16T02:48:59.348Z,24.20
2018-08-16T02:49:31.292Z,24.20
2018-08-16T02:50:03.145Z,24.20
2018-08-16T02:50:34.971Z,24.20
2018-08-16T02:51:06.961Z,24.20
2018-08-16T02:51:39.012Z,24.20
2018-08-16T02:52:10.792Z,24.20
2018-08-16T02:52:42.787Z,24.20
2018-08-16T02:53:14.692Z,24.20
2018-08-16T02:53:46.511Z,24.20
2018-08-16T02:54:18.301Z,24.20
2018-08-16T02:54:50.115Z,24.20
2018-08-16T02:55:21.953Z,24.20
2018-08-16T02:55:53.790Z,24.20
2018-08-16T02:56:25.782Z,24.20
2018-08-16T02:56:57.881Z,24.20
2018-08-16T02:57:29.782Z,24.20
2018-08-16T02:58:01.783Z,24.20
2018-08-16T02:58:33.902Z,24.20
2018-08-16T02:59:05.774Z,24.20
2018-08-16T02:59:37.623Z,24.20
2018-08-16T03:00:09.508Z,24.20
2018-08-16T03:00:41.532Z,24.20
2018-08-16T03:01:13.418Z,24.20
2018-08-16T03:01:45.256Z,24.20
2018-08-16T03:02:17.048Z,24.20
2018-08-16T03:02:49.001Z,24.20
2018-08-16T03:03:20.949Z,24.20
2018-08-16T03:03:52.743Z,24.20
2018-08-16T03:04:24.554Z,24.20
2018-08-16T03:04:56.339Z,24.20
2018-08-16T03:05:28.303Z,24.20
2018-08-16T03:06:00.224Z,24.30
2018-08-16T03:06:32.067Z,24.30
2018-08-16T03:07:03.906Z,24.30
2018-08-16T03:07:35.837Z,24.30
2018-08-16T03:08:07.647Z,24.30
2018-08-16T03:08:39.475Z,24.30
2018-08-16T03:09:11.276Z,24.20
2018-08-16T03:09:43.197Z,24.20
2018-08-16T03:10:15.009Z,24.20
2018-08-16T03:10:46.877Z,24.20
2018-08-16T03:11:18.754Z,24.20
2018-08-16T03:11:50.546Z,24.20
2018-08-16T03:12:22.636Z,24.20
2018-08-16T03:12:54.602Z,24.20
2018-08-16T03:13:26.371Z,24.20
2018-08-16T03:13:58.278Z,24.20
2018-08-16T03:14:30.246Z,24.20
2018-08-16T03:15:02.049Z,24.20
2018-08-16T03:15:33.888Z,24.20
2018-08-16T03:16:05.766Z,24.20
2018-08-16T03:16:37.817Z,24.20
2018-08-16T03:17:09.728Z,24.20
2018-08-16T03:17:41.699Z,24.20
2018-08-16T03:18:13.649Z,24.20
2018-08-16T03:18:45.430Z,24.20
2018-08-16T03:19:17.305Z,24.20
2018-08-16T03:19:49.140Z,24.10
2018-08-16T03:20:20.970Z,24.10
2018-08-16T03:20:52.789Z,24.10
2018-08-16T03:21:24.718Z,24.10
2018-08-16T03:21:56.716Z,24.10
2018-08-16T03:22:28.776Z,24.10
2018-08-16T03:23:00.761Z,24.10
2018-08-16T03:23:32.674Z,24.10
2018-08-16T03:24:04.640Z,24.10
2018-08-16T03:24:36.423Z,24.10
2018-08-16T03:25:08.295Z,24.10
2018-08-16T03:25:40.156Z,24.10
2018-08-16T03:26:11.959Z,24.10
2018-08-16T03:26:43.825Z,24.10
2018-08-16T03:27:15.763Z,24.10
2018-08-16T03:27:47.830Z,24.00
2018-08-16T03:28:19.892Z,24.00
2018-08-16T03:28:51.782Z,24.10
2018-08-16T03:29:23.569Z,24.10
2018-08-16T03:29:55.720Z,24.10
2018-08-16T03:30:27.610Z,24.10
2018-08-16T03:30:59.392Z,24.10
2018-08-16T03:31:31.215Z,24.10
2018-08-16T03:32:03.250Z,24.10
2018-08-16T03:32:35.076Z,24.10
2018-08-16T03:33:06.849Z,24.10
2018-08-16T03:33:38.654Z,24.10
2018-08-16T03:34:10.533Z,24.10
2018-08-16T03:34:42.374Z,24.10
2018-08-16T03:35:14.213Z,24.10
2018-08-16T03:35:45.993Z,24.10
2018-08-16T03:36:18.010Z,24.10
2018-08-16T03:36:49.901Z,24.10
2018-08-16T03:37:21.914Z,24.00
2018-08-16T03:37:53.773Z,24.00
2018-08-16T03:38:25.627Z,24.00
2018-08-16T03:38:57.396Z,24.00
2018-08-16T03:39:29.202Z,24.00
2018-08-16T03:40:00.957Z,24.00
2018-08-16T03:40:32.784Z,24.00
2018-08-16T03:41:04.613Z,24.00
2018-08-16T03:41:36.504Z,24.00
2018-08-16T03:42:08.331Z,23.90
2018-08-16T03:42:40.245Z,23.90
2018-08-16T03:43:12.103Z,23.90
2018-08-16T03:43:43.905Z,23.90
2018-08-16T03:44:15.713Z,23.90
2018-08-16T03:44:47.537Z,23.90
2018-08-16T03:45:19.396Z,23.90
2018-08-16T03:45:51.276Z,23.90
2018-08-16T03:46:23.106Z,23.90
2018-08-16T03:46:55.025Z,23.90
2018-08-16T03:47:26.884Z,24.00
2018-08-16T03:47:58.930Z,23.90
2018-08-16T03:48:30.745Z,24.00
2018-08-16T03:49:02.546Z,24.00
2018-08-16T03:49:34.393Z,23.90
2018-08-16T03:50:06.304Z,23.90
2018-08-16T03:50:38.237Z,24.00
2018-08-16T03:51:10.213Z,24.00
2018-08-16T03:51:42.107Z,24.00
2018-08-16T03:52:14.015Z,24.00
2018-08-16T03:52:45.866Z,24.00
2018-08-16T03:53:17.956Z,24.00
2018-08-16T03:53:49.809Z,24.00
2018-08-16T03:54:21.578Z,24.00
2018-08-16T03:54:53.407Z,23.90
2018-08-16T03:55:25.208Z,23.90
2018-08-16T03:55:57.256Z,23.90
2018-08-16T03:56:29.348Z,23.90
2018-08-16T03:57:01.269Z,23.90
2018-08-16T03:57:33.209Z,23.90
2018-08-16T03:58:04.995Z,23.90
2018-08-16T03:58:36.772Z,23.90
2018-08-16T03:59:08.657Z,23.90
2018-08-16T03:59:40.506Z,23.90
2018-08-16T04:00:12.317Z,23.90
2018-08-16T04:00:44.115Z,23.90
2018-08-16T04:01:15.966Z,23.80
2018-08-16T04:01:47.805Z,23.80
2018-08-16T04:02:19.747Z,23.80
2018-08-16T04:02:51.646Z,23.80
2018-08-16T04:03:23.539Z,23.70
2018-08-16T04:03:55.435Z,23.70
2018-08-16T04:04:27.407Z,23.70
2018-08-16T04:04:59.748Z,23.70
2018-08-16T04:05:31.767Z,23.70
2018-08-16T04:06:03.689Z,23.70
2018-08-16T04:06:35.514Z,23.70
2018-08-16T04:07:07.297Z,23.70
2018-08-16T04:07:39.132Z,23.70
2018-08-16T04:08:10.994Z,23.70
2018-08-16T04:08:42.777Z,23.70
2018-08-16T04:09:15.101Z,23.70
2018-08-16T04:09:47.007Z,23.80
2018-08-16T04:10:18.908Z,23.70
2018-08-16T04:10:50.808Z,23.70
2018-08-16T04:11:22.699Z,23.80
2018-08-16T04:11:54.676Z,23.70
2018-08-16T04:12:26.706Z,23.70
2018-08-16T04:12:58.568Z,23.70
2018-08-16T04:13:30.531Z,23.80
2018-08-16T04:14:02.477Z,23.80
2018-08-16T04:14:34.367Z,23.70
2018-08-16T04:15:06.286Z,23.70
2018-08-16T04:15:38.203Z,23.70
2018-08-16T04:16:10.020Z,23.70
2018-08-16T04:16:41.969Z,23.70
2018-08-16T04:17:13.838Z,23.70
2018-08-16T04:17:45.998Z,23.70
2018-08-16T04:18:17.839Z,23.70
2018-08-16T04:18:49.812Z,23.70
2018-08-16T04:19:21.687Z,23.70
2018-08-16T04:19:53.515Z,23.70
2018-08-16T04:20:25.368Z,23.70
2018-08-16T04:20:57.512Z,23.70
2018-08-16T04:21:29.539Z,23.60
2018-08-16T04:22:01.358Z,23.70
2018-08-16T04:22:33.190Z,23.60
2018-08-16T04:23:05.043Z,23.70
2018-08-16T04:23:37.021Z,23.60
2018-08-16T04:24:08.825Z,23.60
2018-08-16T04:24:40.714Z,23.60
2018-08-16T04:25:12.664Z,23.60
2018-08-16T04:25:44.507Z,23.60
2018-08-16T04:26:16.320Z,23.60
2018-08-16T04:26:48.243Z,23.60
2018-08-16T04:27:20.130Z,23.60
2018-08-16T04:27:52.306Z,23.70
2018-08-16T04:28:24.179Z,23.70
2018-08-16T04:28:55.970Z,23.70
2018-08-16T04:29:27.840Z,23.70
2018-08-16T04:29:59.748Z,23.70
2018-08-16T04:30:31.551Z,23.70
2018-08-16T04:31:03.419Z,23.70
2018-08-16T04:31:35.234Z,23.70
2018-08-16T04:32:07.079Z,23.70
2018-08-16T04:32:38.950Z,23.70
2018-08-16T04:33:10.729Z,23.70
2018-08-16T04:33:42.609Z,23.80
2018-08-16T04:34:14.450Z,23.80
2018-08-16T04:34:46.278Z,23.80
2018-08-16T04:35:18.164Z,23.80
2018-08-16T04:35:49.941Z,23.80
2018-08-16T04:36:21.822Z,23.80
2018-08-16T04:36:53.578Z,23.80
2018-08-16T04:37:25.429Z,23.90
2018-08-16T04:37:57.253Z,23.80
2018-08-16T04:38:29.111Z,23.90
2018-08-16T04:39:01.208Z,23.90
2018-08-16T04:39:33.332Z,23.90
2018-08-16T04:40:05.340Z,23.90
2018-08-16T04:40:37.126Z,23.90
2018-08-16T04:41:09.004Z,23.90
2018-08-16T04:41:40.826Z,23.90
2018-08-16T04:42:12.632Z,23.90
2018-08-16T04:42:44.398Z,23.90
2018-08-16T04:43:16.303Z,23.90
2018-08-16T04:43:48.319Z,23.90
2018-08-16T04:44:20.370Z,23.90
2018-08-16T04:44:52.161Z,23.90
2018-08-16T04:45:24.059Z,23.90
2018-08-16T04:45:56.090Z,23.90
2018-08-16T04:46:27.948Z,23.90
2018-08-16T04:46:59.760Z,23.80
2018-08-16T04:47:31.635Z,23.90
2018-08-16T04:48:03.490Z,23.90
2018-08-16T04:48:35.541Z,23.80
2018-08-16T04:49:07.270Z,23.80
2018-08-16T04:49:39.042Z,23.80
2018-08-16T04:50:11.068Z,23.80
2018-08-16T04:50:42.922Z,23.80
2018-08-16T04:51:14.690Z,23.80
2018-08-16T04:51:46.822Z,23.80
2018-08-16T04:52:18.675Z,23.70
2018-08-16T04:52:50.806Z,23.70
2018-08-16T04:53:22.583Z,23.70
2018-08-16T04:53:54.400Z,23.70
2018-08-16T04:54:26.257Z,23.70
2018-08-16T04:54:58.298Z,23.70
2018-08-16T04:55:30.214Z,23.70
2018-08-16T04:56:02.053Z,23.70
2018-08-16T04:56:33.940Z,23.70
2018-08-16T04:57:05.941Z,23.70
2018-08-16T04:57:37.891Z,23.70
2018-08-16T04:58:09.701Z,23.70
2018-08-16T04:58:41.601Z,23.70
2018-08-16T04:59:13.413Z,23.70
2018-08-16T04:59:45.235Z,23.70
2018-08-16T05:00:17.318Z,23.70
2018-08-16T05:00:49.192Z,23.70
2018-08-16T05:01:20.985Z,23.70
2018-08-16T05:01:52.871Z,23.70
2018-08-16T05:02:24.710Z,23.70
2018-08-16T05:02:56.521Z,23.70
2018-08-16T05:03:28.350Z,23.70
2018-08-16T05:04:00.122Z,23.70
2018-08-16T05:04:31.978Z,23.70
2018-08-16T05:05:03.834Z,23.70
2018-08-16T05:05:35.651Z,23.70
2018-08-16T05:06:07.712Z,23.70
2018-08-16T05:06:39.650Z,23.70
2018-08-16T05:07:12.626Z,23.70
2018-08-16T05:07:44.522Z,23.70
2018-08-16T05:08:16.625Z,23.70
2018-08-16T05:08:48.492Z,23.70
2018-08-16T05:09:20.456Z,23.70
2018-08-16T05:09:52.289Z,23.80
2018-08-16T05:10:24.190Z,23.80
2018-08-16T05:10:56.161Z,23.70
2018-08-16T05:11:27.882Z,23.80
2018-08-16T05:11:59.741Z,23.80
2018-08-16T05:12:31.601Z,23.80
2018-08-16T05:13:03.432Z,23.80
2018-08-16T05:13:35.255Z,23.80
2018-08-16T05:14:07.131Z,23.80
2018-08-16T05:14:38.963Z,23.80
2018-08-16T05:15:10.771Z,23.80
2018-08-16T05:15:42.636Z,23.80
2018-08-16T05:16:14.427Z,23.80
2018-08-16T05:16:46.203Z,23.80
2018-08-16T05:17:18.073Z,23.80
2018-08-16T05:17:49.873Z,23.70
2018-08-16T05:18:21.742Z,23.80
2018-08-16T05:18:53.564Z,23.80
2018-08-16T05:19:25.596Z,23.80
2018-08-16T05:19:57.434Z,23.80
2018-08-16T05:20:29.356Z,23.80
2018-08-16T05:21:01.182Z,23.80
2018-08-16T05:21:33.018Z,23.90
2018-08-16T05:22:04.809Z,23.90
2018-08-16T05:22:36.716Z,23.90
2018-08-16T05:23:08.566Z,23.90
2018-08-16T05:23:40.391Z,23.90
2018-08-16T05:24:12.164Z,23.90
2018-08-16T05:24:44.007Z,23.90
2018-08-16T05:25:16.005Z,23.90
2018-08-16T05:25:47.836Z,23.90
2018-08-16T05:26:19.665Z,24.00
2018-08-16T05:26:51.461Z,23.90
2018-08-16T05:27:23.418Z,23.90
2018-08-16T05:27:55.205Z,24.00
2018-08-16T05:28:27.046Z,24.00
2018-08-16T05:28:58.920Z,24.00
2018-08-16T05:29:30.854Z,24.00
2018-08-16T05:30:02.692Z,24.00
2018-08-16T05:30:34.547Z,24.00
2018-08-16T05:31:06.478Z,24.00
2018-08-16T05:31:38.361Z,24.00
2018-08-16T05:32:10.138Z,24.00
2018-08-16T05:32:41.964Z,24.00
2018-08-16T05:33:13.819Z,24.00
2018-08-16T05:33:45.663Z,24.00
2018-08-16T05:34:17.596Z,24.00
2018-08-16T05:34:49.419Z,24.00
2018-08-16T05:35:21.299Z,24.00
2018-08-16T05:35:53.398Z,24.00
2018-08-16T05:36:25.320Z,24.00
2018-08-16T05:36:57.428Z,24.10
2018-08-16T05:37:29.203Z,24.00
2018-08-16T05:38:01.250Z,24.00
2018-08-16T05:38:33.092Z,24.00
2018-08-16T05:39:04.949Z,24.00
2018-08-16T05:39:36.770Z,24.00
2018-08-16T05:40:08.552Z,24.10
2018-08-16T05:40:40.472Z,24.00
2018-08-16T05:41:12.406Z,24.10
2018-08-16T05:41:44.196Z,24.00
2018-08-16T05:42:16.143Z,24.00
2018-08-16T05:42:48.201Z,24.00
2018-08-16T05:43:20.129Z,24.10
2018-08-16T05:43:51.942Z,24.10
2018-08-16T05:44:23.771Z,24.10
2018-08-16T05:44:55.706Z,24.00
2018-08-16T05:45:27.662Z,24.00
2018-08-16T05:45:59.522Z,24.10
2018-08-16T05:46:31.442Z,24.00
2018-08-16T05:47:03.235Z,24.00
2018-08-16T05:47:35.033Z,24.10
2018-08-16T05:48:06.982Z,24.00
2018-08-16T05:48:38.840Z,24.10
2018-08-16T05:49:10.618Z,24.10
2018-08-16T05:49:42.475Z,24.00
2018-08-16T05:50:14.262Z,24.00
2018-08-16T05:50:46.175Z,24.10
2018-08-16T05:51:17.932Z,24.10
2018-08-16T05:51:49.784Z,24.10
2018-08-16T05:52:21.584Z,24.10
2018-08-16T05:52:53.413Z,24.10
2018-08-16T05:53:25.207Z,24.10
2018-08-16T05:53:57.009Z,24.10
2018-08-16T05:54:28.929Z,24.10
2018-08-16T05:55:00.794Z,24.10
2018-08-16T05:55:32.635Z,24.10
2018-08-16T05:56:04.637Z,24.10
2018-08-16T05:56:36.404Z,24.10
2018-08-16T05:57:08.214Z,24.10
2018-08-16T05:57:39.990Z,24.10
2018-08-16T05:58:12.105Z,24.10
2018-08-16T05:58:43.943Z,24.10
2018-08-16T05:59:15.846Z,24.10
2018-08-16T05:59:47.591Z,24.10
2018-08-16T06:00:19.396Z,24.10
2018-08-16T06:00:51.209Z,24.10
2018-08-16T06:01:22.972Z,24.10
2018-08-16T06:01:54.997Z,24.10
2018-08-16T06:02:26.823Z,24.10
2018-08-16T06:02:58.831Z,24.10
2018-08-16T06:03:30.603Z,24.10
2018-08-16T06:04:02.511Z,24.10
2018-08-16T06:04:34.403Z,24.10
2018-08-16T06:05:06.259Z,24.10
2018-08-16T06:05:38.120Z,24.10
2018-08-16T06:06:10.078Z,24.10
2018-08-16T06:06:41.918Z,24.10
2018-08-16T06:07:13.799Z,24.20
2018-08-16T06:07:45.641Z,24.10
2018-08-16T06:08:17.480Z,24.10
2018-08-16T06:08:49.329Z,24.10
2018-08-16T06:09:21.150Z,24.10
2018-08-16T06:09:52.969Z,24.10
2018-08-16T06:10:24.999Z,24.10
2018-08-16T06:10:56.857Z,24.10
2018-08-16T06:11:28.811Z,24.10
2018-08-16T06:12:00.763Z,24.10
2018-08-16T06:12:32.584Z,24.10
2018-08-16T06:13:04.367Z,24.10
2018-08-16T06:13:36.389Z,24.10
2018-08-16T06:14:08.218Z,24.10
2018-08-16T06:14:40.057Z,24.10
2018-08-16T06:15:11.910Z,24.10
2018-08-16T06:15:43.894Z,24.10
2018-08-16T06:16:15.912Z,24.10
2018-08-16T06:16:47.887Z,24.10
2018-08-16T06:17:19.903Z,24.10
2018-08-16T06:17:51.823Z,24.10
2018-08-16T06:18:23.864Z,24.10
2018-08-16T06:18:55.746Z,24.10
2018-08-16T06:19:27.677Z,24.10
2018-08-16T06:19:59.754Z,24.10
2018-08-16T06:20:31.563Z,24.10
2018-08-16T06:21:03.422Z,24.10
2018-08-16T06:21:35.234Z,24.20
2018-08-16T06:22:07.018Z,24.10
2018-08-16T06:22:38.853Z,24.10
2018-08-16T06:23:10.768Z,24.10
2018-08-16T06:23:42.576Z,24.10
2018-08-16T06:24:14.360Z,24.10
2018-08-16T06:24:46.634Z,24.10
2018-08-16T06:25:18.636Z,24.10
2018-08-16T06:25:50.542Z,24.10
2018-08-16T06:26:22.338Z,24.10
2018-08-16T06:26:54.188Z,24.10
2018-08-16T06:27:25.994Z,24.10
2018-08-16T06:27:57.876Z,24.10
2018-08-16T06:28:29.685Z,24.10
2018-08-16T06:29:01.599Z,24.10
2018-08-16T06:29:33.535Z,24.10
2018-08-16T06:30:05.386Z,24.10
2018-08-16T06:30:37.197Z,24.10
2018-08-16T06:31:09.336Z,24.10
2018-08-16T06:31:41.381Z,24.10
2018-08-16T06:32:13.258Z,24.10
2018-08-16T06:32:45.029Z,24.10
2018-08-16T06:33:16.952Z,24.10
2018-08-16T06:33:48.921Z,24.10
2018-08-16T06:34:20.763Z,24.10
2018-08-16T06:34:52.566Z,24.10
2018-08-16T06:35:24.725Z,24.10
2018-08-16T06:35:56.698Z,24.10
2018-08-16T06:36:28.537Z,24.10
2018-08-16T06:37:00.380Z,24.10
2018-08-16T06:37:32.201Z,24.10
2018-08-16T06:38:04.007Z,24.10
2018-08-16T06:38:35.795Z,24.10
2018-08-16T06:39:08.515Z,24.10
2018-08-16T06:39:40.326Z,24.10
2018-08-16T06:40:12.232Z,24.20
2018-08-16T06:40:44.179Z,24.20
2018-08-16T06:41:16.078Z,24.20
2018-08-16T06:41:47.963Z,24.20
2018-08-16T06:42:19.739Z,24.20
2018-08-16T06:42:51.590Z,24.20
2018-08-16T06:43:23.383Z,24.20
2018-08-16T06:43:55.407Z,24.20
2018-08-16T06:44:27.254Z,24.20
2018-08-16T06:44:59.130Z,24.20
2018-08-16T06:45:30.980Z,24.20
2018-08-16T06:46:02.919Z,24.20
2018-08-16T06:46:34.750Z,24.20
2018-08-16T06:47:06.674Z,24.20
2018-08-16T06:47:38.484Z,24.10
2018-08-16T06:48:10.272Z,24.10
2018-08-16T06:48:42.092Z,24.10
2018-08-16T06:49:13.926Z,24.10
2018-08-16T06:49:45.708Z,24.10
2018-08-16T06:50:17.560Z,24.10
2018-08-16T06:50:49.381Z,24.10